createdAt,value
2019-05-04T00:01:00.003Z,4.67
2019-05-04T00:03:29.576Z,4.50
2019-05-04T00:06:01.323Z,4.07
2019-05-04T00:08:30.348Z,4.33
2019-05-04T00:10:59.646Z,4.07
2019-05-04T00:13:28.663Z,4.30
2019-05-04T00:15:57.794Z,4.57
2019-05-04T00:18:26.976Z,4.97
2019-05-04T00:20:56.851Z,3.80
2019-05-04T00:23:26.006Z,3.83
2019-05-04T00:25:55.133Z,3.80
2019-05-04T00:28:25.014Z,4.03
2019-05-04T00:30:54.488Z,3.63
2019-05-04T00:33:39.335Z,4.00
2019-05-04T00:36:15.781Z,4.77
2019-05-04T00:38:45.302Z,4.00
2019-05-04T00:41:15.124Z,4.40
2019-05-04T00:43:44.787Z,4.67
2019-05-04T00:46:16.153Z,4.10
2019-05-04T00:48:45.323Z,4.73
2019-05-04T00:51:14.495Z,4.10
2019-05-04T00:53:45.354Z,4.37
2019-05-04T00:56:18.562Z,4.33
2019-05-04T00:58:55.445Z,4.30
2019-05-04T01:01:37.373Z,3.53
2019-05-04T01:04:06.742Z,4.40
2019-05-04T01:06:36.184Z,4.07
2019-05-04T01:09:06.889Z,4.17
2019-05-04T01:11:35.900Z,4.50
2019-05-04T01:14:05.179Z,3.63
2019-05-04T01:16:35.101Z,4.30
2019-05-04T01:19:05.471Z,3.80
2019-05-04T01:21:34.741Z,4.17
2019-05-04T01:24:04.465Z,3.93
2019-05-04T01:26:34.605Z,4.10
2019-05-04T01:29:04.647Z,4.57
2019-05-04T01:31:34.507Z,5.37
2019-05-04T01:34:15.163Z,5.30
2019-05-04T01:36:49.315Z,3.97
2019-05-04T01:39:30.983Z,4.90
2019-05-04T01:42:00.084Z,4.83
2019-05-04T01:44:29.169Z,4.30
2019-05-04T01:46:58.208Z,4.70
2019-05-04T01:49:27.331Z,4.53
2019-05-04T01:51:56.378Z,4.17
2019-05-04T01:54:25.711Z,5.10
2019-05-04T01:56:58.929Z,4.70
2019-05-04T01:59:37.884Z,4.03
2019-05-04T02:02:07.057Z,4.47
2019-05-04T02:04:36.054Z,5.50
2019-05-04T02:07:05.254Z,4.53
2019-05-04T02:09:35.454Z,4.13
2019-05-04T02:12:05.790Z,4.50
2019-05-04T02:14:35.642Z,4.50
2019-05-04T02:17:05.097Z,4.60
2019-05-04T02:19:35.238Z,5.47
2019-05-04T02:22:10.679Z,7.20
2019-05-04T02:24:39.715Z,5.23
2019-05-04T02:27:30.539Z,5.80
2019-05-04T02:30:07.746Z,5.87
2019-05-04T02:32:36.864Z,5.20
2019-05-04T02:35:06.445Z,4.90
2019-05-04T02:37:36.836Z,5.03
2019-05-04T02:40:08.329Z,5.70
2019-05-04T02:42:37.509Z,5.50
2019-05-04T02:45:06.731Z,5.10
2019-05-04T02:47:45.759Z,5.53
2019-05-04T02:50:25.252Z,4.27
2019-05-04T02:52:56.239Z,5.23
2019-05-04T02:55:25.683Z,4.87
2019-05-04T02:57:55.796Z,5.50
2019-05-04T03:00:26.363Z,6.60
2019-05-04T03:02:56.053Z,5.60
2019-05-04T03:05:26.121Z,5.27
2019-05-04T03:07:55.801Z,6.03
2019-05-04T03:10:26.391Z,5.30
2019-05-04T03:12:56.323Z,5.67
2019-05-04T03:15:26.522Z,5.07
2019-05-04T03:18:01.809Z,6.60
2019-05-04T03:20:36.888Z,5.43
2019-05-04T03:23:09.421Z,5.67
2019-05-04T03:25:38.441Z,6.10
2019-05-04T03:28:07.564Z,6.00
2019-05-04T03:30:40.585Z,6.40
2019-05-04T03:33:09.978Z,5.97
2019-05-04T03:35:50.242Z,7.00
2019-05-04T03:38:09.796Z,6.53
2019-05-04T03:40:38.807Z,7.70
2019-05-04T03:43:09.623Z,7.43
2019-05-04T03:46:15.904Z,6.47
2019-05-04T03:48:47.966Z,7.40
2019-05-04T03:51:22.073Z,6.80
2019-05-04T03:53:51.072Z,6.40
2019-05-04T03:56:20.188Z,6.87
2019-05-04T03:58:49.252Z,6.47
2019-05-04T04:01:18.411Z,5.70
2019-05-04T04:03:47.605Z,7.50
2019-05-04T04:06:16.747Z,7.07
2019-05-04T04:09:03.909Z,6.53
2019-05-04T04:11:16.728Z,7.53
2019-05-04T04:13:45.780Z,6.50
2019-05-04T04:16:27.672Z,7.57
2019-05-04T04:18:56.821Z,6.10
2019-05-04T04:21:26.654Z,5.50
2019-05-04T04:24:01.535Z,5.80
2019-05-04T04:26:50.035Z,6.90
2019-05-04T04:29:27.431Z,7.07
2019-05-04T04:31:57.000Z,5.20
2019-05-04T04:34:26.477Z,4.53
2019-05-04T04:36:56.479Z,5.93
2019-05-04T04:39:34.161Z,5.53
2019-05-04T04:41:56.605Z,7.20
2019-05-04T04:44:26.362Z,7.80
2019-05-04T04:46:56.057Z,5.57
2019-05-04T04:49:25.796Z,5.40
2019-05-04T04:51:55.923Z,6.50
2019-05-04T04:54:25.976Z,6.30
2019-05-04T04:57:06.095Z,8.37
2019-05-04T04:59:45.349Z,6.67
2019-05-04T05:02:15.693Z,6.07
2019-05-04T05:04:45.687Z,11.30
2019-05-04T05:07:15.444Z,22.87
2019-05-04T05:09:48.761Z,11.13
2019-05-04T05:12:15.401Z,7.43
2019-05-04T05:14:44.574Z,6.60
2019-05-04T05:17:14.967Z,6.97
2019-05-04T05:19:45.312Z,8.60
2019-05-04T05:22:14.789Z,7.60
2019-05-04T05:24:44.567Z,8.10
2019-05-04T05:27:15.432Z,5.50
2019-05-04T05:29:44.892Z,6.03
2019-05-04T05:32:31.142Z,7.77
2019-05-04T05:35:14.342Z,7.20
2019-05-04T05:37:44.557Z,6.60
2019-05-04T05:40:15.364Z,8.30
2019-05-04T05:42:45.568Z,6.70
2019-05-04T05:45:19.394Z,7.00
2019-05-04T05:48:14.379Z,5.37
2019-05-04T05:50:48.750Z,4.40
2019-05-04T05:53:36.872Z,6.83
2019-05-04T05:56:16.734Z,8.07
2019-05-04T05:59:17.358Z,7.07
2019-05-04T06:02:08.201Z,6.00
2019-05-04T06:04:53.368Z,7.30
2019-05-04T06:07:29.328Z,7.90
2019-05-04T06:10:26.196Z,7.20
2019-05-04T06:12:50.035Z,6.17
2019-05-04T06:15:39.059Z,6.37
2019-05-04T06:18:15.111Z,7.97
2019-05-04T06:20:58.446Z,8.03
2019-05-04T06:23:36.828Z,5.20
2019-05-04T06:26:26.336Z,6.60
2019-05-04T06:29:14.299Z,6.67
2019-05-04T06:31:54.538Z,5.80
2019-05-04T06:34:31.112Z,5.77
2019-05-04T06:37:25.080Z,8.30
2019-05-04T06:40:07.426Z,4.70
2019-05-04T06:42:49.491Z,7.43
2019-05-04T06:45:35.534Z,6.87
2019-05-04T06:48:05.485Z,7.43
2019-05-04T06:50:35.556Z,6.70
2019-05-04T06:53:32.830Z,9.37
2019-05-04T06:55:58.337Z,7.37
2019-05-04T06:58:34.706Z,7.97
2019-05-04T07:01:11.169Z,6.20
2019-05-04T07:03:40.114Z,7.43
2019-05-04T07:06:09.221Z,6.97
2019-05-04T07:08:40.492Z,7.37
2019-05-04T07:11:25.730Z,8.67
2019-05-04T07:13:40.467Z,6.40
2019-05-04T07:16:09.560Z,5.57
2019-05-04T07:18:39.378Z,7.77
2019-05-04T07:21:10.195Z,6.13
2019-05-04T07:23:39.540Z,6.80
2019-05-04T07:26:08.619Z,7.53
2019-05-04T07:28:40.327Z,3.77
2019-05-04T07:31:18.314Z,5.40
2019-05-04T07:33:58.341Z,4.00
2019-05-04T07:36:49.431Z,5.50
2019-05-04T07:39:42.146Z,3.80
2019-05-04T07:42:29.468Z,3.57
2019-05-04T07:44:58.010Z,6.00
2019-05-04T07:47:29.660Z,3.40
2019-05-04T07:49:59.321Z,5.43
2019-05-04T07:52:28.701Z,4.57
2019-05-04T07:54:57.892Z,2.50
2019-05-04T07:57:28.902Z,4.30
2019-05-04T07:59:59.764Z,3.97
2019-05-04T08:02:28.729Z,4.40
2019-05-04T08:04:57.883Z,3.07
2019-05-04T08:07:30.251Z,3.23
2019-05-04T08:09:57.660Z,4.30
2019-05-04T08:12:42.432Z,3.93
2019-05-04T08:15:10.608Z,4.50
2019-05-04T08:17:38.934Z,5.40
2019-05-04T08:20:10.460Z,2.90
2019-05-04T08:22:45.085Z,5.53
2019-05-04T08:25:14.316Z,3.87
2019-05-04T08:27:45.246Z,4.47
2019-05-04T08:30:14.783Z,3.30
2019-05-04T08:32:46.043Z,2.87
2019-05-04T08:35:15.598Z,2.50
2019-05-04T08:37:44.977Z,2.00
2019-05-04T08:40:15.614Z,2.00
2019-05-04T08:42:47.965Z,1.20
2019-05-04T08:45:20.375Z,1.40
2019-05-04T08:48:16.245Z,3.63
2019-05-04T08:51:04.598Z,3.30
2019-05-04T08:53:46.818Z,2.47
2019-05-04T08:56:44.983Z,2.40
2019-05-04T08:59:16.286Z,2.33
2019-05-04T09:02:10.550Z,6.03
2019-05-04T09:04:45.425Z,2.33
2019-05-04T09:07:21.889Z,4.70
2019-05-04T09:09:41.298Z,1.87
2019-05-04T09:12:19.793Z,2.17
2019-05-04T09:14:41.160Z,1.63
2019-05-04T09:17:17.889Z,1.97
2019-05-04T09:19:40.945Z,2.73
2019-05-04T09:22:23.492Z,2.60
2019-05-04T09:24:46.568Z,2.57
2019-05-04T09:27:11.627Z,2.07
2019-05-04T09:29:40.928Z,1.60
2019-05-04T09:32:23.402Z,2.07
2019-05-04T09:34:40.763Z,2.17
2019-05-04T09:37:16.459Z,2.10
2019-05-04T09:39:40.576Z,2.87
2019-05-04T09:42:17.501Z,2.30
2019-05-04T09:44:49.612Z,2.80
2019-05-04T09:47:20.571Z,1.83
2019-05-04T09:49:47.466Z,9.10
2019-05-04T09:52:24.762Z,2.20
2019-05-04T09:54:55.435Z,3.70
2019-05-04T09:57:25.004Z,3.47
2019-05-04T10:00:02.416Z,3.23
2019-05-04T10:02:24.819Z,1.80
2019-05-04T10:04:54.583Z,1.30
2019-05-04T10:07:25.437Z,2.03
2019-05-04T10:09:54.718Z,2.80
2019-05-04T10:12:45.115Z,1.97
2019-05-04T10:15:19.539Z,2.10
2019-05-04T10:17:57.314Z,2.07
2019-05-04T10:20:26.394Z,3.17
2019-05-04T10:22:55.616Z,2.20
2019-05-04T10:25:25.102Z,1.50
2019-05-04T10:27:55.874Z,2.10
2019-05-04T10:30:25.027Z,2.03
2019-05-04T10:32:54.246Z,1.63
2019-05-04T10:35:24.512Z,2.10
2019-05-04T10:37:55.546Z,1.77
2019-05-04T10:40:24.517Z,2.30
2019-05-04T10:43:02.326Z,2.43
2019-05-04T10:45:24.476Z,1.60
2019-05-04T10:47:54.316Z,2.27
2019-05-04T10:50:24.970Z,3.33
2019-05-04T10:52:55.151Z,1.70
2019-05-04T10:55:24.777Z,0.80
2019-05-04T10:57:54.626Z,1.90
2019-05-04T11:00:25.255Z,1.00
2019-05-04T11:02:54.953Z,2.90
2019-05-04T11:05:24.694Z,1.30
2019-05-04T11:07:54.440Z,1.80
2019-05-04T11:10:25.785Z,1.53
2019-05-04T11:12:54.744Z,3.13
2019-05-04T11:15:25.032Z,1.60
2019-05-04T11:17:55.495Z,2.93
2019-05-04T11:20:24.706Z,2.20
2019-05-04T11:22:55.396Z,3.80
2019-05-04T11:25:44.472Z,4.20
2019-05-04T11:28:16.024Z,4.23
2019-05-04T11:30:45.189Z,4.60
2019-05-04T11:33:15.465Z,4.10
2019-05-04T11:35:45.641Z,2.50
2019-05-04T11:38:15.302Z,2.10
2019-05-04T11:40:45.203Z,1.90
2019-05-04T11:43:18.690Z,2.00
2019-05-04T11:45:45.330Z,1.40
2019-05-04T11:48:14.607Z,3.90
2019-05-04T11:50:44.664Z,3.50
2019-05-04T11:53:14.446Z,2.20
2019-05-04T11:55:44.395Z,2.23
2019-05-04T11:58:15.295Z,2.10
2019-05-04T12:00:45.537Z,2.17
2019-05-04T12:03:15.365Z,2.63
2019-05-04T12:06:04.231Z,1.63
2019-05-04T12:09:07.644Z,2.30
2019-05-04T12:11:36.782Z,1.33
2019-05-04T12:14:05.914Z,2.40
2019-05-04T12:16:34.931Z,1.93
2019-05-04T12:19:05.311Z,1.60
2019-05-04T12:21:34.805Z,1.20
2019-05-04T12:24:03.970Z,2.50
2019-05-04T12:26:33.264Z,1.43
2019-05-04T12:29:02.435Z,1.60
2019-05-04T12:31:31.536Z,1.23
2019-05-04T12:34:00.639Z,1.30
2019-05-04T12:36:29.784Z,1.30
2019-05-04T12:38:59.180Z,1.30
2019-05-04T12:41:28.243Z,2.20
2019-05-04T12:43:59.941Z,3.70
2019-05-04T12:46:28.095Z,1.37
2019-05-04T12:48:57.123Z,3.10
2019-05-04T12:51:26.249Z,1.37
2019-05-04T12:53:58.189Z,1.50
2019-05-04T12:56:26.171Z,1.80
2019-05-04T12:58:55.449Z,7.43
2019-05-04T13:01:24.912Z,2.60
2019-05-04T13:03:54.645Z,1.57
2019-05-04T13:06:24.444Z,1.40
2019-05-04T13:08:54.301Z,8.13
2019-05-04T13:11:25.016Z,1.87
2019-05-04T13:13:54.553Z,1.60
2019-05-04T13:16:25.043Z,1.87
2019-05-04T13:19:07.506Z,1.70
2019-05-04T13:21:36.652Z,1.90
2019-05-04T13:24:06.196Z,0.93
2019-05-04T13:26:35.377Z,1.40
2019-05-04T13:29:06.272Z,1.90
2019-05-04T13:31:35.764Z,4.20
2019-05-04T13:34:08.350Z,2.00
2019-05-04T13:36:35.921Z,1.10
2019-05-04T13:39:06.572Z,1.40
2019-05-04T13:41:35.731Z,1.53
2019-05-04T13:44:05.057Z,1.10
2019-05-04T13:46:35.219Z,1.30
2019-05-04T13:49:04.847Z,1.20
2019-05-04T13:51:35.030Z,1.40
2019-05-04T13:54:08.052Z,1.53
2019-05-04T13:56:51.079Z,1.90
2019-05-04T13:59:44.222Z,5.70
2019-05-04T14:02:25.771Z,2.10
2019-05-04T14:05:00.438Z,1.50
2019-05-04T14:07:29.544Z,1.30
2019-05-04T14:09:58.644Z,1.20
2019-05-04T14:12:27.812Z,1.70
2019-05-04T14:14:56.873Z,1.60
2019-05-04T14:17:25.931Z,1.53
2019-05-04T14:19:54.960Z,2.00
2019-05-04T14:22:25.731Z,1.50
2019-05-04T14:24:55.293Z,2.47
2019-05-04T14:27:24.562Z,2.70
2019-05-04T14:29:54.659Z,3.10
2019-05-04T14:32:24.982Z,3.03
2019-05-04T14:34:54.797Z,2.80
2019-05-04T14:37:24.606Z,2.00
2019-05-04T14:39:54.305Z,2.10
2019-05-04T14:42:25.050Z,1.87
2019-05-04T14:45:11.778Z,2.40
2019-05-04T14:47:46.065Z,4.73
2019-05-04T14:50:15.315Z,2.83
2019-05-04T14:52:44.950Z,2.20
2019-05-04T14:55:14.639Z,1.90
2019-05-04T14:57:44.090Z,1.77
2019-05-04T15:00:15.565Z,1.83
2019-05-04T15:03:09.915Z,1.97
2019-05-04T15:05:39.107Z,1.50
2019-05-04T15:08:08.545Z,2.07
2019-05-04T15:10:37.671Z,2.67
2019-05-04T15:13:06.961Z,1.80
2019-05-04T15:15:36.108Z,3.27
2019-05-04T15:18:05.254Z,1.93
2019-05-04T15:20:43.315Z,2.60
2019-05-04T15:23:12.462Z,2.33
2019-05-04T15:25:41.475Z,2.00
2019-05-04T15:28:10.638Z,1.93
2019-05-04T15:30:39.764Z,2.07
2019-05-04T15:33:08.800Z,2.40
2019-05-04T15:35:37.934Z,2.30
2019-05-04T15:38:07.123Z,1.27
2019-05-04T15:40:36.276Z,1.50
2019-05-04T15:43:05.439Z,2.00
2019-05-04T15:45:35.067Z,1.97
2019-05-04T15:48:08.011Z,2.40
2019-05-04T15:50:51.967Z,2.70
2019-05-04T15:53:40.156Z,2.83
2019-05-04T15:56:17.333Z,2.53
2019-05-04T15:58:48.888Z,3.17
2019-05-04T16:01:18.681Z,2.03
2019-05-04T16:03:47.876Z,3.07
2019-05-04T16:06:17.060Z,5.27
2019-05-04T16:08:46.259Z,4.03
2019-05-04T16:11:15.456Z,3.30
2019-05-04T16:13:45.315Z,2.30
2019-05-04T16:16:14.537Z,2.23
2019-05-04T16:18:44.408Z,2.20
2019-05-04T16:21:15.462Z,2.93
2019-05-04T16:23:44.423Z,3.50
2019-05-04T16:26:15.286Z,4.10
2019-05-04T16:28:44.741Z,7.00
2019-05-04T16:31:14.896Z,6.47
2019-05-04T16:33:45.318Z,6.67
2019-05-04T16:36:14.753Z,2.40
2019-05-04T16:38:44.979Z,6.87
2019-05-04T16:41:14.225Z,5.27
2019-05-04T16:43:45.220Z,5.10
2019-05-04T16:46:14.441Z,8.50
2019-05-04T16:48:45.247Z,7.33
2019-05-04T16:51:39.752Z,7.10
2019-05-04T16:54:08.833Z,2.87
2019-05-04T16:56:37.835Z,2.90
2019-05-04T16:59:07.053Z,3.10
2019-05-04T17:01:45.171Z,3.63
2019-05-04T17:04:32.329Z,3.60
2019-05-04T17:07:01.509Z,3.00
2019-05-04T17:09:30.748Z,3.33
2019-05-04T17:12:00.232Z,2.70
2019-05-04T17:14:29.235Z,4.73
2019-05-04T17:16:58.291Z,4.70
2019-05-04T17:19:28.818Z,5.40
2019-05-04T17:22:07.788Z,3.80
2019-05-04T17:24:52.263Z,3.03
2019-05-04T17:27:39.090Z,2.80
2019-05-04T17:30:11.843Z,3.53
2019-05-04T17:32:41.163Z,3.30
2019-05-04T17:35:10.656Z,3.50
2019-05-04T17:37:39.750Z,2.97
2019-05-04T17:40:09.204Z,3.03
2019-05-04T17:42:42.176Z,3.40
2019-05-04T17:45:18.087Z,4.37
2019-05-04T17:47:47.222Z,3.10
2019-05-04T17:50:16.422Z,7.50
2019-05-04T17:52:45.547Z,5.50
2019-05-04T17:55:14.716Z,3.60
2019-05-04T17:57:45.131Z,3.80
2019-05-04T18:00:25.479Z,9.83
2019-05-04T18:02:56.774Z,8.40
2019-05-04T18:05:25.870Z,7.27
2019-05-04T18:07:55.279Z,7.33
2019-05-04T18:10:24.567Z,10.13
2019-05-04T18:13:14.460Z,8.83
2019-05-04T18:16:01.897Z,7.10
2019-05-04T18:18:39.048Z,5.40
2019-05-04T18:21:08.253Z,5.90
2019-05-04T18:23:37.404Z,5.83
2019-05-04T18:26:06.651Z,4.70
2019-05-04T18:28:35.775Z,3.60
2019-05-04T18:31:04.919Z,3.83
2019-05-04T18:33:34.354Z,4.30
2019-05-04T18:36:05.212Z,3.30
2019-05-04T18:38:35.120Z,6.10
2019-05-04T18:41:05.114Z,5.67
2019-05-04T18:43:56.346Z,5.50
2019-05-04T18:46:34.301Z,4.57
2019-05-04T18:49:07.694Z,6.03
2019-05-04T18:51:48.806Z,4.33
2019-05-04T18:54:17.823Z,4.13
2019-05-04T18:56:46.911Z,3.20
2019-05-04T18:59:16.116Z,3.80
2019-05-04T19:01:48.356Z,3.70
2019-05-04T19:04:16.128Z,3.10
2019-05-04T19:06:58.900Z,3.77
2019-05-04T19:09:30.898Z,4.93
2019-05-04T19:11:59.984Z,7.20
2019-05-04T19:14:29.152Z,5.57
2019-05-04T19:17:07.470Z,4.07
2019-05-04T19:19:29.368Z,5.00
2019-05-04T19:21:58.499Z,5.00
2019-05-04T19:24:35.068Z,6.40
2019-05-04T19:27:06.467Z,4.80
2019-05-04T19:29:35.119Z,4.00
2019-05-04T19:32:04.849Z,4.60
2019-05-04T19:34:34.112Z,4.07
2019-05-04T19:37:04.949Z,15.00
2019-05-04T19:39:35.176Z,5.60
2019-05-04T19:42:14.731Z,6.73
2019-05-04T19:44:47.520Z,7.80
2019-05-04T19:47:22.592Z,8.63
2019-05-04T19:49:47.420Z,6.27
2019-05-04T19:52:16.570Z,5.13
2019-05-04T19:54:45.764Z,5.13
2019-05-04T19:57:16.116Z,6.43
2019-05-04T19:59:45.411Z,6.40
2019-05-04T20:02:14.674Z,8.33
2019-05-04T20:04:45.300Z,8.80
2019-05-04T20:07:25.503Z,6.70
2019-05-04T20:10:04.523Z,4.70
2019-05-04T20:12:41.051Z,6.10
2019-05-04T20:15:22.210Z,5.77
2019-05-04T20:17:45.060Z,5.00
2019-05-04T20:20:15.062Z,4.33
2019-05-04T20:22:44.636Z,4.57
2019-05-04T20:25:17.220Z,4.47
2019-05-04T20:27:46.404Z,4.53
2019-05-04T20:30:16.136Z,4.40
2019-05-04T20:32:45.289Z,6.17
2019-05-04T20:35:15.413Z,5.43
2019-05-04T20:37:45.223Z,4.80
2019-05-04T20:40:16.371Z,13.73
2019-05-04T20:42:45.698Z,5.37
2019-05-04T20:45:28.759Z,5.17
2019-05-04T20:48:14.607Z,5.97
2019-05-04T20:50:44.449Z,5.87
2019-05-04T20:53:18.891Z,6.43
2019-05-04T20:55:47.961Z,4.07
2019-05-04T20:58:17.138Z,4.93
2019-05-04T21:00:46.351Z,5.03
2019-05-04T21:03:24.617Z,5.33
2019-05-04T21:06:04.505Z,5.10
2019-05-04T21:08:33.260Z,4.60
2019-05-04T21:11:04.274Z,4.17
2019-05-04T21:13:32.937Z,4.30
2019-05-04T21:16:04.357Z,4.80
2019-05-04T21:18:42.314Z,5.37
2019-05-04T21:21:20.890Z,6.93
2019-05-04T21:23:49.920Z,4.90
2019-05-04T21:26:19.032Z,5.17
2019-05-04T21:28:48.251Z,5.87
2019-05-04T21:31:17.419Z,6.00
2019-05-04T21:33:46.891Z,4.47
2019-05-04T21:36:16.096Z,6.17
2019-05-04T21:38:45.236Z,5.63
2019-05-04T21:41:14.692Z,5.67
2019-05-04T21:43:48.540Z,4.50
2019-05-04T21:46:36.722Z,5.27
2019-05-04T21:49:22.640Z,5.17
2019-05-04T21:51:51.837Z,6.40
2019-05-04T21:54:20.927Z,6.47
2019-05-04T21:56:50.026Z,5.60
2019-05-04T21:59:19.222Z,6.07
2019-05-04T22:02:06.136Z,6.67
2019-05-04T22:04:39.724Z,6.93
2019-05-04T22:07:09.327Z,5.27
2019-05-04T22:09:38.463Z,6.00
2019-05-04T22:12:07.603Z,5.07
2019-05-04T22:14:36.765Z,4.73
2019-05-04T22:17:08.426Z,4.63
2019-05-04T22:19:37.543Z,5.30
2019-05-04T22:22:06.624Z,5.00
2019-05-04T22:24:35.744Z,4.50
2019-05-04T22:27:05.503Z,6.30
2019-05-04T22:29:34.773Z,4.10
2019-05-04T22:32:04.014Z,5.83
2019-05-04T22:34:34.789Z,6.70
2019-05-04T22:37:21.344Z,5.57
2019-05-04T22:39:50.387Z,4.77
2019-05-04T22:42:19.559Z,5.40
2019-05-04T22:44:48.586Z,5.70
2019-05-04T22:47:17.704Z,4.60
2019-05-04T22:49:46.790Z,5.10
2019-05-04T22:52:23.083Z,6.50
2019-05-04T22:55:11.556Z,6.40
2019-05-04T22:58:18.002Z,7.13
2019-05-04T23:01:12.088Z,7.97
2019-05-04T23:03:48.563Z,6.50
2019-05-04T23:06:17.558Z,7.37
2019-05-04T23:08:46.627Z,7.00
2019-05-04T23:11:15.707Z,7.90
2019-05-04T23:13:45.063Z,6.93
2019-05-04T23:16:14.989Z,6.70
2019-05-04T23:18:46.140Z,7.80
2019-05-04T23:21:15.179Z,8.20
2019-05-04T23:23:46.345Z,8.50
2019-05-04T23:26:15.108Z,9.27
2019-05-04T23:28:45.327Z,10.40
2019-05-04T23:31:16.406Z,6.97
2019-05-04T23:33:45.310Z,9.30
2019-05-04T23:36:15.125Z,8.57
2019-05-04T23:38:45.120Z,7.60
2019-05-04T23:41:14.639Z,7.90
2019-05-04T23:43:45.613Z,6.50
2019-05-04T23:46:15.524Z,9.73
2019-05-04T23:48:45.200Z,36.90
2019-05-04T23:51:16.163Z,34.67
2019-05-04T23:53:45.123Z,24.80
2019-05-04T23:56:14.725Z,22.17
2019-05-04T23:58:55.105Z,11.60
